sensor_id;sensor_type;location;lat;lon;timestamp;P1;durP1;ratioP1;P2;durP2;ratioP2
59093;SDS011;44880;52.814;18.270;2023-07-13T00:00:54;18.10;;;13.80;;
59093;SDS011;44880;52.814;18.270;2023-07-13T00:03:40;22.80;;;14.70;;
59093;SDS011;44880;52.814;18.270;2023-07-13T00:06:12;18.10;;;13.40;;
59093;SDS011;44880;52.814;18.270;2023-07-13T00:11:15;20.80;;;13.60;;
59093;SDS011;44880;52.814;18.270;2023-07-13T00:13:47;17.70;;;12.30;;
59093;SDS011;44880;52.814;18.270;2023-07-13T00:16:19;16.60;;;11.80;;
59093;SDS011;44880;52.814;18.270;2023-07-13T00:21:22;16.00;;;11.40;;
59093;SDS011;44880;52.814;18.270;2023-07-13T00:23:53;16.80;;;12.20;;
59093;SDS011;44880;52.814;18.270;2023-07-13T00:26:25;17.90;;;12.00;;
59093;SDS011;44880;52.814;18.270;2023-07-13T00:28:57;15.90;;;12.30;;
59093;SDS011;44880;52.814;18.270;2023-07-13T00:31:28;17.70;;;12.50;;
59093;SDS011;44880;52.814;18.270;2023-07-13T00:34:00;15.30;;;12.30;;
59093;SDS011;44880;52.814;18.270;2023-07-13T00:36:32;17.70;;;12.70;;
59093;SDS011;44880;52.814;18.270;2023-07-13T00:39:03;16.30;;;12.20;;
59093;SDS011;44880;52.814;18.270;2023-07-13T00:41:35;15.70;;;11.60;;
59093;SDS011;44880;52.814;18.270;2023-07-13T00:44:08;15.10;;;10.30;;
59093;SDS011;44880;52.814;18.270;2023-07-13T00:46:42;15.50;;;10.90;;
59093;SDS011;44880;52.814;18.270;2023-07-13T00:49:15;17.00;;;11.80;;
59093;SDS011;44880;52.814;18.270;2023-07-13T00:51:49;15.30;;;10.90;;
59093;SDS011;44880;52.814;18.270;2023-07-13T00:54:23;15.40;;;11.20;;
59093;SDS011;44880;52.814;18.270;2023-07-13T00:56:57;16.30;;;11.90;;
59093;SDS011;44880;52.814;18.270;2023-07-13T00:59:31;18.50;;;14.40;;
59093;SDS011;44880;52.814;18.270;2023-07-13T01:02:04;17.60;;;12.90;;
59093;SDS011;44880;52.814;18.270;2023-07-13T01:07:06;19.90;;;13.90;;
59093;SDS011;44880;52.814;18.270;2023-07-13T01:09:39;22.60;;;13.60;;
59093;SDS011;44880;52.814;18.270;2023-07-13T01:12:11;21.00;;;11.90;;
59093;SDS011;44880;52.814;18.270;2023-07-13T01:14:43;19.20;;;12.20;;
59093;SDS011;44880;52.814;18.270;2023-07-13T01:17:15;19.20;;;11.90;;
59093;SDS011;44880;52.814;18.270;2023-07-13T01:19:47;21.20;;;13.80;;
59093;SDS011;44880;52.814;18.270;2023-07-13T01:22:19;20.60;;;13.40;;
59093;SDS011;44880;52.814;18.270;2023-07-13T01:24:55;22.80;;;14.50;;
59093;SDS011;44880;52.814;18.270;2023-07-13T01:27:27;18.20;;;14.70;;
59093;SDS011;44880;52.814;18.270;2023-07-13T01:29:58;21.20;;;14.20;;
59093;SDS011;44880;52.814;18.270;2023-07-13T01:32:32;23.80;;;13.40;;
59093;SDS011;44880;52.814;18.270;2023-07-13T01:35:05;20.50;;;13.20;;
59093;SDS011;44880;52.814;18.270;2023-07-13T01:37:39;21.90;;;13.40;;
59093;SDS011;44880;52.814;18.270;2023-07-13T01:40:13;20.00;;;13.70;;
59093;SDS011;44880;52.814;18.270;2023-07-13T01:42:44;17.00;;;11.60;;
59093;SDS011;44880;52.814;18.270;2023-07-13T01:45:16;22.20;;;12.90;;
59093;SDS011;44880;52.814;18.270;2023-07-13T01:47:48;20.40;;;13.90;;
59093;SDS011;44880;52.814;18.270;2023-07-13T01:50:19;24.50;;;14.40;;
59093;SDS011;44880;52.814;18.270;2023-07-13T01:52:51;27.10;;;15.00;;
59093;SDS011;44880;52.814;18.270;2023-07-13T01:55:23;19.60;;;13.90;;
59093;SDS011;44880;52.814;18.270;2023-07-13T01:57:55;26.90;;;13.40;;
59093;SDS011;44880;52.814;18.270;2023-07-13T02:00:26;26.10;;;14.00;;
59093;SDS011;44880;52.814;18.270;2023-07-13T02:02:58;23.50;;;13.80;;
59093;SDS011;44880;52.814;18.270;2023-07-13T02:05:30;29.10;;;14.40;;
59093;SDS011;44880;52.814;18.270;2023-07-13T02:08:01;31.00;;;14.30;;
59093;SDS011;44880;52.814;18.270;2023-07-13T02:13:04;28.20;;;15.10;;
59093;SDS011;44880;52.814;18.270;2023-07-13T02:18:07;26.30;;;14.10;;
59093;SDS011;44880;52.814;18.270;2023-07-13T02:20:39;30.80;;;14.80;;
59093;SDS011;44880;52.814;18.270;2023-07-13T02:23:10;28.40;;;12.80;;
59093;SDS011;44880;52.814;18.270;2023-07-13T02:25:42;25.90;;;13.20;;
59093;SDS011;44880;52.814;18.270;2023-07-13T02:28:14;24.20;;;12.80;;
59093;SDS011;44880;52.814;18.270;2023-07-13T02:30:45;29.60;;;14.10;;
59093;SDS011;44880;52.814;18.270;2023-07-13T02:33:17;27.00;;;13.50;;
59093;SDS011;44880;52.814;18.270;2023-07-13T02:35:50;28.90;;;15.20;;
59093;SDS011;44880;52.814;18.270;2023-07-13T02:38:23;30.60;;;14.20;;
59093;SDS011;44880;52.814;18.270;2023-07-13T02:40:55;23.90;;;13.70;;
59093;SDS011;44880;52.814;18.270;2023-07-13T02:43:27;30.90;;;13.90;;
59093;SDS011;44880;52.814;18.270;2023-07-13T02:46:00;26.10;;;13.40;;
59093;SDS011;44880;52.814;18.270;2023-07-13T02:48:37;23.60;;;13.00;;
59093;SDS011;44880;52.814;18.270;2023-07-13T02:51:09;26.80;;;13.80;;
59093;SDS011;44880;52.814;18.270;2023-07-13T02:53:42;19.40;;;13.30;;
59093;SDS011;44880;52.814;18.270;2023-07-13T02:56:13;23.50;;;13.60;;
59093;SDS011;44880;52.814;18.270;2023-07-13T02:58:45;29.70;;;14.50;;
59093;SDS011;44880;52.814;18.270;2023-07-13T03:01:16;31.80;;;13.90;;
59093;SDS011;44880;52.814;18.270;2023-07-13T03:03:49;25.50;;;14.60;;
59093;SDS011;44880;52.814;18.270;2023-07-13T03:06:22;26.60;;;14.80;;
59093;SDS011;44880;52.814;18.270;2023-07-13T03:08:56;29.90;;;14.60;;
59093;SDS011;44880;52.814;18.270;2023-07-13T03:11:28;27.70;;;14.60;;
59093;SDS011;44880;52.814;18.270;2023-07-13T03:14:08;26.00;;;13.80;;
59093;SDS011;44880;52.814;18.270;2023-07-13T03:16:40;22.70;;;13.90;;
59093;SDS011;44880;52.814;18.270;2023-07-13T03:19:12;26.80;;;13.70;;
59093;SDS011;44880;52.814;18.270;2023-07-13T03:21:45;22.40;;;13.00;;
59093;SDS011;44880;52.814;18.270;2023-07-13T03:24:17;23.10;;;13.20;;
59093;SDS011;44880;52.814;18.270;2023-07-13T03:26:48;24.50;;;14.00;;
59093;SDS011;44880;52.814;18.270;2023-07-13T03:29:20;24.90;;;14.50;;
59093;SDS011;44880;52.814;18.270;2023-07-13T03:31:52;25.70;;;15.10;;
59093;SDS011;44880;52.814;18.270;2023-07-13T03:36:55;33.80;;;14.40;;
59093;SDS011;44880;52.814;18.270;2023-07-13T03:39:26;27.30;;;14.40;;
59093;SDS011;44880;52.814;18.270;2023-07-13T03:41:59;22.60;;;14.60;;
59093;SDS011;44880;52.814;18.270;2023-07-13T03:44:31;21.90;;;13.50;;
59093;SDS011;44880;52.814;18.270;2023-07-13T03:47:03;23.00;;;13.60;;
59093;SDS011;44880;52.814;18.270;2023-07-13T03:49:37;25.20;;;15.00;;
59093;SDS011;44880;52.814;18.270;2023-07-13T03:52:08;31.10;;;15.30;;
59093;SDS011;44880;52.814;18.270;2023-07-13T03:54:40;26.80;;;15.40;;
59093;SDS011;44880;52.814;18.270;2023-07-13T03:57:12;26.00;;;14.60;;
59093;SDS011;44880;52.814;18.270;2023-07-13T03:59:44;22.80;;;15.00;;
59093;SDS011;44880;52.814;18.270;2023-07-13T04:02:15;22.60;;;13.50;;
59093;SDS011;44880;52.814;18.270;2023-07-13T04:04:47;21.80;;;13.50;;
59093;SDS011;44880;52.814;18.270;2023-07-13T04:07:19;21.70;;;13.30;;
59093;SDS011;44880;52.814;18.270;2023-07-13T04:09:51;19.90;;;13.50;;
59093;SDS011;44880;52.814;18.270;2023-07-13T04:14:52;25.60;;;15.20;;
59093;SDS011;44880;52.814;18.270;2023-07-13T04:17:24;21.40;;;15.60;;
59093;SDS011;44880;52.814;18.270;2023-07-13T04:19:56;27.00;;;15.50;;
59093;SDS011;44880;52.814;18.270;2023-07-13T04:22:27;27.10;;;14.10;;
59093;SDS011;44880;52.814;18.270;2023-07-13T04:24:59;22.30;;;14.20;;
59093;SDS011;44880;52.814;18.270;2023-07-13T04:27:33;20.50;;;13.50;;
59093;SDS011;44880;52.814;18.270;2023-07-13T04:30:07;26.30;;;13.40;;
59093;SDS011;44880;52.814;18.270;2023-07-13T04:32:39;19.00;;;15.10;;
59093;SDS011;44880;52.814;18.270;2023-07-13T04:35:11;24.50;;;14.50;;
59093;SDS011;44880;52.814;18.270;2023-07-13T04:37:42;24.60;;;15.00;;
59093;SDS011;44880;52.814;18.270;2023-07-13T04:40:14;23.20;;;15.20;;
59093;SDS011;44880;52.814;18.270;2023-07-13T04:42:46;20.70;;;14.20;;
59093;SDS011;44880;52.814;18.270;2023-07-13T04:47:48;17.60;;;13.30;;
59093;SDS011;44880;52.814;18.270;2023-07-13T04:50:20;25.30;;;14.60;;
59093;SDS011;44880;52.814;18.270;2023-07-13T04:52:52;21.00;;;14.30;;
59093;SDS011;44880;52.814;18.270;2023-07-13T04:55:24;22.10;;;15.40;;
59093;SDS011;44880;52.814;18.270;2023-07-13T04:57:59;19.70;;;15.10;;
59093;SDS011;44880;52.814;18.270;2023-07-13T05:03:00;17.40;;;13.20;;
59093;SDS011;44880;52.814;18.270;2023-07-13T05:08:02;20.50;;;14.20;;
59093;SDS011;44880;52.814;18.270;2023-07-13T05:10:36;20.30;;;14.60;;
59093;SDS011;44880;52.814;18.270;2023-07-13T05:13:07;18.60;;;13.90;;
59093;SDS011;44880;52.814;18.270;2023-07-13T05:15:39;16.70;;;14.30;;
59093;SDS011;44880;52.814;18.270;2023-07-13T05:18:11;17.80;;;14.20;;
59093;SDS011;44880;52.814;18.270;2023-07-13T05:20:43;17.80;;;13.20;;
59093;SDS011;44880;52.814;18.270;2023-07-13T05:23:14;16.40;;;12.90;;
59093;SDS011;44880;52.814;18.270;2023-07-13T05:25:46;17.90;;;12.20;;
59093;SDS011;44880;52.814;18.270;2023-07-13T05:28:18;19.00;;;12.90;;
59093;SDS011;44880;52.814;18.270;2023-07-13T05:30:51;15.50;;;12.60;;
59093;SDS011;44880;52.814;18.270;2023-07-13T05:33:23;16.40;;;12.80;;
59093;SDS011;44880;52.814;18.270;2023-07-13T05:35:56;18.40;;;13.40;;
59093;SDS011;44880;52.814;18.270;2023-07-13T05:38:28;15.50;;;11.80;;
59093;SDS011;44880;52.814;18.270;2023-07-13T05:43:30;14.80;;;10.70;;
59093;SDS011;44880;52.814;18.270;2023-07-13T05:48:32;16.10;;;10.80;;
59093;SDS011;44880;52.814;18.270;2023-07-13T05:51:04;16.00;;;11.90;;
59093;SDS011;44880;52.814;18.270;2023-07-13T05:53:35;14.70;;;10.60;;
59093;SDS011;44880;52.814;18.270;2023-07-13T05:56:07;12.20;;;10.10;;
59093;SDS011;44880;52.814;18.270;2023-07-13T05:58:39;14.50;;;10.50;;
59093;SDS011;44880;52.814;18.270;2023-07-13T06:01:12;12.80;;;9.60;;
59093;SDS011;44880;52.814;18.270;2023-07-13T06:03:44;15.60;;;10.00;;
59093;SDS011;44880;52.814;18.270;2023-07-13T06:06:16;12.40;;;9.80;;
59093;SDS011;44880;52.814;18.270;2023-07-13T06:08:49;14.70;;;11.30;;
59093;SDS011;44880;52.814;18.270;2023-07-13T06:11:24;13.20;;;9.40;;
59093;SDS011;44880;52.814;18.270;2023-07-13T06:13:58;13.90;;;8.90;;
59093;SDS011;44880;52.814;18.270;2023-07-13T06:16:29;13.30;;;8.80;;
59093;SDS011;44880;52.814;18.270;2023-07-13T06:19:01;12.70;;;9.00;;
59093;SDS011;44880;52.814;18.270;2023-07-13T06:21:44;13.10;;;8.90;;
59093;SDS011;44880;52.814;18.270;2023-07-13T06:24:16;13.20;;;9.20;;
59093;SDS011;44880;52.814;18.270;2023-07-13T06:26:48;13.80;;;9.40;;
59093;SDS011;44880;52.814;18.270;2023-07-13T06:31:53;14.90;;;8.20;;
59093;SDS011;44880;52.814;18.270;2023-07-13T06:34:25;11.70;;;7.60;;
59093;SDS011;44880;52.814;18.270;2023-07-13T06:36:57;10.40;;;6.90;;
59093;SDS011;44880;52.814;18.270;2023-07-13T06:42:02;13.50;;;8.30;;
59093;SDS011;44880;52.814;18.270;2023-07-13T06:44:34;11.60;;;6.90;;
59093;SDS011;44880;52.814;18.270;2023-07-13T06:47:07;11.60;;;7.40;;
59093;SDS011;44880;52.814;18.270;2023-07-13T06:49:48;9.50;;;6.50;;
59093;SDS011;44880;52.814;18.270;2023-07-13T06:52:24;10.30;;;6.50;;
59093;SDS011;44880;52.814;18.270;2023-07-13T06:54:55;10.00;;;6.00;;
59093;SDS011;44880;52.814;18.270;2023-07-13T07:00:06;10.10;;;5.70;;
59093;SDS011;44880;52.814;18.270;2023-07-13T07:02:39;11.40;;;5.80;;
59093;SDS011;44880;52.814;18.270;2023-07-13T07:05:12;10.40;;;5.60;;
59093;SDS011;44880;52.814;18.270;2023-07-13T07:07:56;9.40;;;5.30;;
59093;SDS011;44880;52.814;18.270;2023-07-13T07:12:59;9.90;;;5.50;;
59093;SDS011;44880;52.814;18.270;2023-07-13T07:15:32;9.80;;;5.70;;
59093;SDS011;44880;52.814;18.270;2023-07-13T07:18:08;13.30;;;6.10;;
59093;SDS011;44880;52.814;18.270;2023-07-13T07:20:40;9.90;;;5.20;;
59093;SDS011;44880;52.814;18.270;2023-07-13T07:23:12;10.10;;;5.20;;
59093;SDS011;44880;52.814;18.270;2023-07-13T07:25:47;11.90;;;5.30;;
59093;SDS011;44880;52.814;18.270;2023-07-13T07:28:20;10.60;;;5.30;;
59093;SDS011;44880;52.814;18.270;2023-07-13T07:30:54;10.30;;;5.10;;
59093;SDS011;44880;52.814;18.270;2023-07-13T07:33:28;11.40;;;4.90;;
59093;SDS011;44880;52.814;18.270;2023-07-13T07:36:06;8.60;;;4.30;;
59093;SDS011;44880;52.814;18.270;2023-07-13T07:38:38;9.90;;;4.40;;
59093;SDS011;44880;52.814;18.270;2023-07-13T07:41:10;10.50;;;4.90;;
59093;SDS011;44880;52.814;18.270;2023-07-13T07:43:51;10.20;;;4.90;;
59093;SDS011;44880;52.814;18.270;2023-07-13T07:46:37;9.30;;;4.80;;
59093;SDS011;44880;52.814;18.270;2023-07-13T07:49:12;11.60;;;5.70;;
59093;SDS011;44880;52.814;18.270;2023-07-13T07:52:00;10.20;;;5.00;;
59093;SDS011;44880;52.814;18.270;2023-07-13T07:54:31;12.10;;;5.50;;
59093;SDS011;44880;52.814;18.270;2023-07-13T07:59:38;10.40;;;5.70;;
59093;SDS011;44880;52.814;18.270;2023-07-13T08:02:20;10.60;;;6.30;;
59093;SDS011;44880;52.814;18.270;2023-07-13T08:04:51;10.90;;;5.80;;
59093;SDS011;44880;52.814;18.270;2023-07-13T08:10:34;10.50;;;4.90;;
59093;SDS011;44880;52.814;18.270;2023-07-13T08:16:12;10.10;;;4.90;;
59093;SDS011;44880;52.814;18.270;2023-07-13T08:19:01;10.30;;;4.60;;
59093;SDS011;44880;52.814;18.270;2023-07-13T08:21:34;14.10;;;5.40;;
59093;SDS011;44880;52.814;18.270;2023-07-13T08:24:09;9.30;;;4.90;;
59093;SDS011;44880;52.814;18.270;2023-07-13T08:26:55;10.20;;;4.80;;
59093;SDS011;44880;52.814;18.270;2023-07-13T08:29:27;10.00;;;4.80;;
59093;SDS011;44880;52.814;18.270;2023-07-13T08:32:02;11.00;;;5.10;;
59093;SDS011;44880;52.814;18.270;2023-07-13T08:37:46;9.70;;;4.30;;
59093;SDS011;44880;52.814;18.270;2023-07-13T08:43:30;10.90;;;4.50;;
59093;SDS011;44880;52.814;18.270;2023-07-13T08:46:17;9.60;;;4.00;;
59093;SDS011;44880;52.814;18.270;2023-07-13T08:48:52;9.30;;;3.70;;
59093;SDS011;44880;52.814;18.270;2023-07-13T08:54:21;9.10;;;3.40;;
59093;SDS011;44880;52.814;18.270;2023-07-13T08:56:58;7.60;;;3.30;;
59093;SDS011;44880;52.814;18.270;2023-07-13T08:59:50;10.50;;;3.90;;
59093;SDS011;44880;52.814;18.270;2023-07-13T09:02:25;8.70;;;3.70;;
59093;SDS011;44880;52.814;18.270;2023-07-13T09:05:14;10.20;;;3.60;;
59093;SDS011;44880;52.814;18.270;2023-07-13T09:10:46;10.30;;;3.40;;
59093;SDS011;44880;52.814;18.270;2023-07-13T09:13:26;9.80;;;3.80;;
59093;SDS011;44880;52.814;18.270;2023-07-13T09:16:04;10.30;;;3.40;;
59093;SDS011;44880;52.814;18.270;2023-07-13T09:18:46;9.80;;;3.80;;
59093;SDS011;44880;52.814;18.270;2023-07-13T09:21:22;7.50;;;3.00;;
59093;SDS011;44880;52.814;18.270;2023-07-13T09:23:58;8.40;;;3.10;;
59093;SDS011;44880;52.814;18.270;2023-07-13T09:26:37;8.30;;;3.10;;
59093;SDS011;44880;52.814;18.270;2023-07-13T09:29:13;7.70;;;3.50;;
59093;SDS011;44880;52.814;18.270;2023-07-13T09:31:53;8.60;;;2.90;;
59093;SDS011;44880;52.814;18.270;2023-07-13T09:34:28;7.50;;;2.60;;
59093;SDS011;44880;52.814;18.270;2023-07-13T09:37:00;8.60;;;2.90;;
59093;SDS011;44880;52.814;18.270;2023-07-13T09:39:34;7.80;;;2.70;;
59093;SDS011;44880;52.814;18.270;2023-07-13T09:42:20;6.70;;;2.50;;
59093;SDS011;44880;52.814;18.270;2023-07-13T09:44:54;7.20;;;2.40;;
59093;SDS011;44880;52.814;18.270;2023-07-13T09:47:28;7.00;;;2.40;;
59093;SDS011;44880;52.814;18.270;2023-07-13T09:50:04;7.00;;;2.30;;
59093;SDS011;44880;52.814;18.270;2023-07-13T09:52:47;8.10;;;2.30;;
59093;SDS011;44880;52.814;18.270;2023-07-13T09:55:35;8.00;;;2.40;;
59093;SDS011;44880;52.814;18.270;2023-07-13T09:58:22;7.80;;;2.40;;
59093;SDS011;44880;52.814;18.270;2023-07-13T10:00:56;7.40;;;2.50;;
59093;SDS011;44880;52.814;18.270;2023-07-13T10:03:34;7.10;;;2.40;;
59093;SDS011;44880;52.814;18.270;2023-07-13T10:06:22;7.70;;;2.30;;
59093;SDS011;44880;52.814;18.270;2023-07-13T10:09:01;6.90;;;2.10;;
59093;SDS011;44880;52.814;18.270;2023-07-13T10:14:28;8.40;;;3.10;;
59093;SDS011;44880;52.814;18.270;2023-07-13T10:17:02;8.50;;;2.60;;
59093;SDS011;44880;52.814;18.270;2023-07-13T10:19:48;11.70;;;3.00;;
59093;SDS011;44880;52.814;18.270;2023-07-13T10:22:22;9.20;;;2.70;;
59093;SDS011;44880;52.814;18.270;2023-07-13T10:27:47;7.80;;;3.20;;
59093;SDS011;44880;52.814;18.270;2023-07-13T10:30:23;8.20;;;3.10;;
59093;SDS011;44880;52.814;18.270;2023-07-13T10:33:00;8.20;;;3.10;;
59093;SDS011;44880;52.814;18.270;2023-07-13T10:35:33;7.50;;;3.10;;
59093;SDS011;44880;52.814;18.270;2023-07-13T10:38:06;9.00;;;3.40;;
59093;SDS011;44880;52.814;18.270;2023-07-13T10:43:45;9.50;;;3.70;;
59093;SDS011;44880;52.814;18.270;2023-07-13T10:46:22;8.30;;;3.40;;
59093;SDS011;44880;52.814;18.270;2023-07-13T10:49:02;8.10;;;3.30;;
59093;SDS011;44880;52.814;18.270;2023-07-13T10:51:36;9.60;;;4.50;;
59093;SDS011;44880;52.814;18.270;2023-07-13T10:54:27;9.80;;;5.30;;
59093;SDS011;44880;52.814;18.270;2023-07-13T10:59:49;12.00;;;6.50;;
59093;SDS011;44880;52.814;18.270;2023-07-13T11:02:46;12.30;;;7.70;;
59093;SDS011;44880;52.814;18.270;2023-07-13T11:05:32;12.30;;;6.00;;
59093;SDS011;44880;52.814;18.270;2023-07-13T11:08:16;11.70;;;7.00;;
59093;SDS011;44880;52.814;18.270;2023-07-13T11:10:52;12.90;;;7.60;;
59093;SDS011;44880;52.814;18.270;2023-07-13T11:13:54;12.20;;;7.10;;
59093;SDS011;44880;52.814;18.270;2023-07-13T11:16:35;11.60;;;6.60;;
59093;SDS011;44880;52.814;18.270;2023-07-13T11:22:21;11.50;;;5.00;;
59093;SDS011;44880;52.814;18.270;2023-07-13T11:25:20;9.30;;;4.30;;
59093;SDS011;44880;52.814;18.270;2023-07-13T11:28:15;8.70;;;4.10;;
59093;SDS011;44880;52.814;18.270;2023-07-13T11:33:22;10.50;;;5.00;;
59093;SDS011;44880;52.814;18.270;2023-07-13T11:36:04;11.00;;;6.40;;
59093;SDS011;44880;52.814;18.270;2023-07-13T11:41:16;10.50;;;5.80;;
59093;SDS011;44880;52.814;18.270;2023-07-13T11:43:52;15.10;;;5.40;;
59093;SDS011;44880;52.814;18.270;2023-07-13T11:46:32;11.80;;;6.10;;
59093;SDS011;44880;52.814;18.270;2023-07-13T11:49:06;11.00;;;4.90;;
59093;SDS011;44880;52.814;18.270;2023-07-13T11:51:55;9.50;;;4.90;;
59093;SDS011;44880;52.814;18.270;2023-07-13T11:54:28;11.50;;;6.00;;
59093;SDS011;44880;52.814;18.270;2023-07-13T11:57:16;10.60;;;5.60;;
59093;SDS011;44880;52.814;18.270;2023-07-13T12:00:04;10.20;;;4.70;;
59093;SDS011;44880;52.814;18.270;2023-07-13T12:02:50;8.60;;;4.20;;
59093;SDS011;44880;52.814;18.270;2023-07-13T12:05:24;10.20;;;4.40;;
59093;SDS011;44880;52.814;18.270;2023-07-13T12:07:58;11.30;;;5.00;;
59093;SDS011;44880;52.814;18.270;2023-07-13T12:10:30;10.10;;;4.50;;
59093;SDS011;44880;52.814;18.270;2023-07-13T12:13:18;10.50;;;4.40;;
59093;SDS011;44880;52.814;18.270;2023-07-13T12:15:52;9.50;;;4.00;;
59093;SDS011;44880;52.814;18.270;2023-07-13T12:21:14;12.40;;;5.20;;
59093;SDS011;44880;52.814;18.270;2023-07-13T12:23:49;10.00;;;5.00;;
59093;SDS011;44880;52.814;18.270;2023-07-13T12:26:22;11.20;;;4.70;;
59093;SDS011;44880;52.814;18.270;2023-07-13T12:29:05;11.40;;;5.00;;
59093;SDS011;44880;52.814;18.270;2023-07-13T12:31:40;15.50;;;4.60;;
59093;SDS011;44880;52.814;18.270;2023-07-13T12:36:59;8.20;;;3.40;;
59093;SDS011;44880;52.814;18.270;2023-07-13T12:39:34;9.40;;;3.80;;
59093;SDS011;44880;52.814;18.270;2023-07-13T12:42:21;7.90;;;3.40;;
59093;SDS011;44880;52.814;18.270;2023-07-13T12:45:16;7.70;;;2.90;;
59093;SDS011;44880;52.814;18.270;2023-07-13T12:48:17;14.10;;;3.60;;
59093;SDS011;44880;52.814;18.270;2023-07-13T12:50:49;10.70;;;4.40;;
59093;SDS011;44880;52.814;18.270;2023-07-13T12:53:28;10.70;;;4.10;;
59093;SDS011;44880;52.814;18.270;2023-07-13T12:56:08;8.80;;;4.00;;
59093;SDS011;44880;52.814;18.270;2023-07-13T12:58:48;10.60;;;4.20;;
59093;SDS011;44880;52.814;18.270;2023-07-13T13:01:45;10.40;;;4.90;;
59093;SDS011;44880;52.814;18.270;2023-07-13T13:04:18;9.90;;;4.50;;
59093;SDS011;44880;52.814;18.270;2023-07-13T13:07:08;10.00;;;4.40;;
59093;SDS011;44880;52.814;18.270;2023-07-13T13:09:55;10.70;;;5.40;;
59093;SDS011;44880;52.814;18.270;2023-07-13T13:12:40;9.00;;;4.90;;
59093;SDS011;44880;52.814;18.270;2023-07-13T13:18:18;9.40;;;4.00;;
59093;SDS011;44880;52.814;18.270;2023-07-13T13:20:54;8.70;;;3.70;;
59093;SDS011;44880;52.814;18.270;2023-07-13T13:23:27;7.20;;;3.10;;
59093;SDS011;44880;52.814;18.270;2023-07-13T13:29:03;7.20;;;2.70;;
59093;SDS011;44880;52.814;18.270;2023-07-13T13:31:54;6.40;;;2.50;;
59093;SDS011;44880;52.814;18.270;2023-07-13T13:34:34;7.10;;;2.40;;
59093;SDS011;44880;52.814;18.270;2023-07-13T13:37:09;7.50;;;2.40;;
59093;SDS011;44880;52.814;18.270;2023-07-13T13:40:04;6.60;;;2.70;;
59093;SDS011;44880;52.814;18.270;2023-07-13T13:42:43;6.80;;;3.00;;
59093;SDS011;44880;52.814;18.270;2023-07-13T13:45:15;8.10;;;3.00;;
59093;SDS011;44880;52.814;18.270;2023-07-13T13:47:58;6.70;;;2.80;;
59093;SDS011;44880;52.814;18.270;2023-07-13T13:50:31;7.80;;;2.50;;
59093;SDS011;44880;52.814;18.270;2023-07-13T13:55:50;7.30;;;3.10;;
59093;SDS011;44880;52.814;18.270;2023-07-13T13:58:23;6.70;;;2.70;;
59093;SDS011;44880;52.814;18.270;2023-07-13T14:00:55;7.30;;;2.60;;
59093;SDS011;44880;52.814;18.270;2023-07-13T14:03:31;6.90;;;2.70;;
59093;SDS011;44880;52.814;18.270;2023-07-13T14:06:13;6.80;;;2.60;;
59093;SDS011;44880;52.814;18.270;2023-07-13T14:08:45;7.60;;;2.40;;
59093;SDS011;44880;52.814;18.270;2023-07-13T14:11:51;6.80;;;2.40;;
59093;SDS011;44880;52.814;18.270;2023-07-13T14:14:26;7.10;;;2.30;;
59093;SDS011;44880;52.814;18.270;2023-07-13T14:17:02;7.80;;;2.30;;
59093;SDS011;44880;52.814;18.270;2023-07-13T14:19:45;6.30;;;2.20;;
59093;SDS011;44880;52.814;18.270;2023-07-13T14:22:19;7.40;;;2.30;;
59093;SDS011;44880;52.814;18.270;2023-07-13T14:24:53;6.20;;;2.20;;
59093;SDS011;44880;52.814;18.270;2023-07-13T14:27:37;7.20;;;2.40;;
59093;SDS011;44880;52.814;18.270;2023-07-13T14:30:14;6.70;;;2.30;;
59093;SDS011;44880;52.814;18.270;2023-07-13T14:33:01;6.00;;;2.10;;
59093;SDS011;44880;52.814;18.270;2023-07-13T14:35:36;6.30;;;2.30;;
59093;SDS011;44880;52.814;18.270;2023-07-13T14:38:17;6.40;;;2.30;;
59093;SDS011;44880;52.814;18.270;2023-07-13T14:40:53;6.30;;;2.20;;
59093;SDS011;44880;52.814;18.270;2023-07-13T14:43:25;7.40;;;2.40;;
59093;SDS011;44880;52.814;18.270;2023-07-13T14:45:59;6.70;;;2.30;;
59093;SDS011;44880;52.814;18.270;2023-07-13T14:48:47;7.00;;;2.40;;
59093;SDS011;44880;52.814;18.270;2023-07-13T14:51:19;7.60;;;2.40;;
59093;SDS011;44880;52.814;18.270;2023-07-13T14:54:08;7.90;;;2.20;;
59093;SDS011;44880;52.814;18.270;2023-07-13T14:56:51;7.80;;;2.30;;
59093;SDS011;44880;52.814;18.270;2023-07-13T15:02:21;8.20;;;2.30;;
59093;SDS011;44880;52.814;18.270;2023-07-13T15:07:59;7.10;;;2.40;;
59093;SDS011;44880;52.814;18.270;2023-07-13T15:10:32;7.30;;;2.10;;
59093;SDS011;44880;52.814;18.270;2023-07-13T15:13:14;7.90;;;2.40;;
59093;SDS011;44880;52.814;18.270;2023-07-13T15:15:51;6.00;;;2.10;;
59093;SDS011;44880;52.814;18.270;2023-07-13T15:18:23;7.10;;;2.10;;
59093;SDS011;44880;52.814;18.270;2023-07-13T15:23:48;6.10;;;1.80;;
59093;SDS011;44880;52.814;18.270;2023-07-13T15:26:20;7.00;;;2.20;;
59093;SDS011;44880;52.814;18.270;2023-07-13T15:28:59;6.80;;;1.90;;
59093;SDS011;44880;52.814;18.270;2023-07-13T15:31:34;7.30;;;2.10;;
59093;SDS011;44880;52.814;18.270;2023-07-13T15:34:12;6.10;;;1.90;;
59093;SDS011;44880;52.814;18.270;2023-07-13T15:36:48;5.90;;;1.90;;
59093;SDS011;44880;52.814;18.270;2023-07-13T15:39:32;6.20;;;2.10;;
59093;SDS011;44880;52.814;18.270;2023-07-13T15:42:07;6.30;;;2.10;;
59093;SDS011;44880;52.814;18.270;2023-07-13T15:44:45;6.80;;;2.30;;
59093;SDS011;44880;52.814;18.270;2023-07-13T15:47:22;7.00;;;2.50;;
59093;SDS011;44880;52.814;18.270;2023-07-13T15:49:57;7.20;;;3.00;;
59093;SDS011;44880;52.814;18.270;2023-07-13T15:52:45;6.20;;;2.10;;
59093;SDS011;44880;52.814;18.270;2023-07-13T15:55:34;6.00;;;2.10;;
59093;SDS011;44880;52.814;18.270;2023-07-13T15:58:17;7.20;;;2.50;;
59093;SDS011;44880;52.814;18.270;2023-07-13T16:01:02;6.90;;;2.20;;
59093;SDS011;44880;52.814;18.270;2023-07-13T16:03:43;7.10;;;2.20;;
59093;SDS011;44880;52.814;18.270;2023-07-13T16:06:48;6.60;;;2.40;;
59093;SDS011;44880;52.814;18.270;2023-07-13T16:09:25;6.70;;;2.60;;
59093;SDS011;44880;52.814;18.270;2023-07-13T16:15:02;7.10;;;2.30;;
59093;SDS011;44880;52.814;18.270;2023-07-13T16:18:03;7.40;;;2.30;;
59093;SDS011;44880;52.814;18.270;2023-07-13T16:20:41;5.90;;;1.80;;
59093;SDS011;44880;52.814;18.270;2023-07-13T16:23:25;6.60;;;2.20;;
59093;SDS011;44880;52.814;18.270;2023-07-13T16:25:58;7.00;;;2.00;;
59093;SDS011;44880;52.814;18.270;2023-07-13T16:31:17;8.30;;;2.00;;
59093;SDS011;44880;52.814;18.270;2023-07-13T16:33:52;6.80;;;2.00;;
59093;SDS011;44880;52.814;18.270;2023-07-13T16:36:28;7.80;;;2.10;;
59093;SDS011;44880;52.814;18.270;2023-07-13T16:39:12;8.10;;;2.00;;
59093;SDS011;44880;52.814;18.270;2023-07-13T16:41:47;6.30;;;1.90;;
59093;SDS011;44880;52.814;18.270;2023-07-13T16:44:22;6.10;;;2.00;;
59093;SDS011;44880;52.814;18.270;2023-07-13T16:49:58;6.90;;;2.10;;
59093;SDS011;44880;52.814;18.270;2023-07-13T16:52:42;6.20;;;2.10;;
59093;SDS011;44880;52.814;18.270;2023-07-13T16:55:15;7.40;;;2.50;;
59093;SDS011;44880;52.814;18.270;2023-07-13T16:57:56;7.10;;;1.90;;
59093;SDS011;44880;52.814;18.270;2023-07-13T17:00:35;7.30;;;2.20;;
59093;SDS011;44880;52.814;18.270;2023-07-13T17:03:07;7.30;;;2.40;;
59093;SDS011;44880;52.814;18.270;2023-07-13T17:08:29;7.50;;;2.60;;